Port Lavaca, TX

2:13 PM CDT on August 27, 2014 (GMT -0500)
Port Alto Shores | Change Station
CLOSE
Current Station
Personal Weather Station
Location: Port Alto, TX
Elevation: 10 ft
Nearby Weather Stations
Active Advisory: Special Statement

Elev 10 ft 28.66 °N, 96.42 °W | Updated 90 days ago

Thunderstorm
Thunderstorm
89 °F
Feels Like 96 °F
N
14
Wind Variable Wind from NE
Gusts 17 mph

Today
High -- | Low -- °F
--% Chance of Precip.
Yesterday
High -- | Low -- °F
Precip. -- in
7:01 AM 7:52 PM
Waxing Crescent, 4% visible
Pressure 29.97 in
Visibility 10.0 miles
Clouds Mostly Cloudy 6000 ft
Mostly Cloudy 8500 ft
Heat Index 96 °F
Dew Point 73 °F
Humidity 59%
Rainfall 0.00 in
Snow Depth Not available.
UV 6 out of 12
Pollen 6.70 out of 12
Ozone Good
Flu Activity Not available.
METAR KPSX 271853Z AUTO 01013KT 10SM BKN060 BKN085 28/25 A2997

More Conditions Fewer Conditions

Pressure 29.97 in
Visibility 10.0 miles
Clouds Mostly Cloudy 6000 ft
Mostly Cloudy 8500 ft
Heat Index 96 °F
Dew Point 73 °F
Humidity 59%
Rainfall 0.00 in
Snow Depth Not available.
UV 6 out of 12
Pollen 6.70 out of 12
Ozone Good
Flu Activity Not available.
METAR KPSX 271853Z AUTO 01013KT 10SM BKN060 BKN085 28/25 A2997

More Conditions Fewer Conditions

Nowcast | as of 1:54 PM CDT on August 27, 2014

Isolated to scattered showers and occasional thunderstorms will continue moving across portions of the coastal Bend and middle Texas coastal waters this afternoon. Brief periods of light to moderate rainfall can be expected with this activity. Accumulations over land will generally remain below a tenth of an inch.

×

10-Day Weather Forecast

Almanac

Astronomy

Aug. 27, 2014 Rise Set
Actual Time 7:01 AM CDT 7:52 PM CDT
Civil Twilight 6:37 AM CDT 8:16 PM CDT
Nautical Twilight 6:08 AM CDT 8:45 PM CDT
Astronomical Twilight 5:39 AM CDT 9:14 PM CDT
Moon 8:45 AM CDT 9:00 PM CDT
Length of Visible Light 13h 39m
Length of Day
12h 51m
Tomorrow will be 1m 37s shorter.
Waxing Crescent, 4% of the Moon is Illuminated
Today
Waxing Crescent
Sep 2
First Quarter
Sep 8
Full
Sep 15
Last Quarter
Sep 24
New

Today's Extremes

State Highs State Lows

Community

WunderPhotos

Upload Photos

1,747,759 photos uploaded!

Nearby

Air Quality

  Air Quality AQ Index Pollutant
Yesterday Good
OZONE
Current Good
OZONE
Wednesday Good
OZONE
Wednesday Good
PM10
Thursday Good
OZONE
Thursday Good
PM10
Friday Good
OZONE
Friday Good
PM10
Saturday Good
OZONE
Saturday Good
PM10

Snow Depth

Station Depth Elevation
No new snow has been reported.

Earthquake Activity

City Distance Mag. Time & Date
No recent earthquake activity has been reported nearby.
Minimum magnitude displayed is 2.5.

Coastal Water Temperatures

Place Temperature
Seadrift, TX 87.1 °F
Rockport, TX 88.0 °F
USCG Freeport, TX 86.0 °F

Nearby Weather Stations